sensor_id;sensor_type;location;lat;lon;timestamp;P1;durP1;ratioP1;P2;durP2;ratioP2
18973;SDS011;9621;48.690;9.466;2022-08-11T00:01:43;23.52;;;22.23;;
18973;SDS011;9621;48.690;9.466;2022-08-11T00:04:12;24.88;;;23.38;;
18973;SDS011;9621;48.690;9.466;2022-08-11T00:06:41;23.88;;;22.58;;
18973;SDS011;9621;48.690;9.466;2022-08-11T00:09:11;23.92;;;22.65;;
18973;SDS011;9621;48.690;9.466;2022-08-11T00:11:41;23.90;;;22.60;;
18973;SDS011;9621;48.690;9.466;2022-08-11T00:14:14;24.13;;;22.83;;
18973;SDS011;9621;48.690;9.466;2022-08-11T00:16:51;23.88;;;22.27;;
18973;SDS011;9621;48.690;9.466;2022-08-11T00:19:21;24.80;;;23.05;;
18973;SDS011;9621;48.690;9.466;2022-08-11T00:21:50;23.67;;;22.27;;
18973;SDS011;9621;48.690;9.466;2022-08-11T00:24:19;24.42;;;22.98;;
18973;SDS011;9621;48.690;9.466;2022-08-11T00:26:47;23.55;;;22.35;;
18973;SDS011;9621;48.690;9.466;2022-08-11T00:29:16;23.00;;;21.50;;
18973;SDS011;9621;48.690;9.466;2022-08-11T00:31:47;23.60;;;21.77;;
18973;SDS011;9621;48.690;9.466;2022-08-11T00:34:17;23.38;;;21.98;;
18973;SDS011;9621;48.690;9.466;2022-08-11T00:36:48;22.92;;;21.63;;
18973;SDS011;9621;48.690;9.466;2022-08-11T00:39:18;22.90;;;21.67;;
18973;SDS011;9621;48.690;9.466;2022-08-11T00:41:54;24.30;;;22.60;;
18973;SDS011;9621;48.690;9.466;2022-08-11T00:44:35;23.05;;;21.70;;
18973;SDS011;9621;48.690;9.466;2022-08-11T00:47:17;23.15;;;21.95;;
18973;SDS011;9621;48.690;9.466;2022-08-11T00:49:57;24.13;;;22.65;;
18973;SDS011;9621;48.690;9.466;2022-08-11T00:52:32;23.90;;;22.60;;
18973;SDS011;9621;48.690;9.466;2022-08-11T00:55:22;22.65;;;21.48;;
18973;SDS011;9621;48.690;9.466;2022-08-11T00:58:18;13.68;;;12.88;;
18973;SDS011;9621;48.690;9.466;2022-08-11T01:01:12;14.95;;;14.05;;
18973;SDS011;9621;48.690;9.466;2022-08-11T01:07:01;23.58;;;22.15;;
18973;SDS011;9621;48.690;9.466;2022-08-11T01:09:48;24.08;;;22.77;;
18973;SDS011;9621;48.690;9.466;2022-08-11T01:12:44;22.85;;;21.55;;
18973;SDS011;9621;48.690;9.466;2022-08-11T01:15:30;24.60;;;23.02;;
18973;SDS011;9621;48.690;9.466;2022-08-11T01:21:44;23.45;;;22.23;;
18973;SDS011;9621;48.690;9.466;2022-08-11T01:27:44;23.45;;;21.90;;
18973;SDS011;9621;48.690;9.466;2022-08-11T01:30:46;22.92;;;21.73;;
18973;SDS011;9621;48.690;9.466;2022-08-11T01:40:22;23.20;;;21.90;;
18973;SDS011;9621;48.690;9.466;2022-08-11T01:46:45;23.40;;;22.20;;
18973;SDS011;9621;48.690;9.466;2022-08-11T01:49:20;24.25;;;22.85;;
18973;SDS011;9621;48.690;9.466;2022-08-11T01:51:59;23.48;;;21.92;;
18973;SDS011;9621;48.690;9.466;2022-08-11T01:54:36;23.77;;;22.25;;
18973;SDS011;9621;48.690;9.466;2022-08-11T01:57:11;23.92;;;22.63;;
18973;SDS011;9621;48.690;9.466;2022-08-11T01:59:51;23.17;;;21.98;;
18973;SDS011;9621;48.690;9.466;2022-08-11T02:02:24;23.13;;;21.92;;
18973;SDS011;9621;48.690;9.466;2022-08-11T02:08:30;23.73;;;22.33;;
18973;SDS011;9621;48.690;9.466;2022-08-11T02:11:12;24.08;;;22.65;;
18973;SDS011;9621;48.690;9.466;2022-08-11T02:13:58;23.60;;;22.20;;
18973;SDS011;9621;48.690;9.466;2022-08-11T02:16:32;24.52;;;22.98;;
18973;SDS011;9621;48.690;9.466;2022-08-11T02:19:19;23.75;;;22.40;;
18973;SDS011;9621;48.690;9.466;2022-08-11T02:22:08;24.23;;;22.83;;
18973;SDS011;9621;48.690;9.466;2022-08-11T02:25:03;24.08;;;22.70;;
18973;SDS011;9621;48.690;9.466;2022-08-11T02:27:35;24.85;;;23.35;;
18973;SDS011;9621;48.690;9.466;2022-08-11T02:30:11;23.98;;;22.67;;
18973;SDS011;9621;48.690;9.466;2022-08-11T02:32:49;3.85;;;3.20;;
18973;SDS011;9621;48.690;9.466;2022-08-11T02:35:40;4.18;;;3.00;;
18973;SDS011;9621;48.690;9.466;2022-08-11T02:38:20;5.18;;;2.95;;
18973;SDS011;9621;48.690;9.466;2022-08-11T02:40:58;4.22;;;3.17;;
18973;SDS011;9621;48.690;9.466;2022-08-11T02:43:55;4.43;;;3.35;;
18973;SDS011;9621;48.690;9.466;2022-08-11T02:46:39;7.28;;;2.80;;
18973;SDS011;9621;48.690;9.466;2022-08-11T02:49:18;3.38;;;2.70;;
18973;SDS011;9621;48.690;9.466;2022-08-11T02:52:19;4.47;;;3.08;;
18973;SDS011;9621;48.690;9.466;2022-08-11T02:54:52;4.40;;;3.22;;
18973;SDS011;9621;48.690;9.466;2022-08-11T02:57:41;3.72;;;2.95;;
18973;SDS011;9621;48.690;9.466;2022-08-11T03:00:15;4.93;;;3.03;;
18973;SDS011;9621;48.690;9.466;2022-08-11T03:05:59;4.85;;;2.97;;
18973;SDS011;9621;48.690;9.466;2022-08-11T03:08:38;4.35;;;3.13;;
18973;SDS011;9621;48.690;9.466;2022-08-11T03:11:16;3.42;;;2.97;;
18973;SDS011;9621;48.690;9.466;2022-08-11T03:14:09;3.53;;;2.80;;
18973;SDS011;9621;48.690;9.466;2022-08-11T03:17:00;4.32;;;3.38;;
18973;SDS011;9621;48.690;9.466;2022-08-11T03:19:40;5.07;;;3.13;;
18973;SDS011;9621;48.690;9.466;2022-08-11T03:22:16;4.28;;;3.25;;
18973;SDS011;9621;48.690;9.466;2022-08-11T03:24:50;3.72;;;3.33;;
18973;SDS011;9621;48.690;9.466;2022-08-11T03:27:26;4.85;;;3.40;;
18973;SDS011;9621;48.690;9.466;2022-08-11T03:30:02;5.75;;;3.17;;
18973;SDS011;9621;48.690;9.466;2022-08-11T03:32:34;5.03;;;3.40;;
18973;SDS011;9621;48.690;9.466;2022-08-11T03:35:08;4.45;;;3.35;;
18973;SDS011;9621;48.690;9.466;2022-08-11T03:37:40;3.55;;;3.05;;
18973;SDS011;9621;48.690;9.466;2022-08-11T03:43:47;4.93;;;2.92;;
18973;SDS011;9621;48.690;9.466;2022-08-11T03:46:24;4.78;;;3.25;;
18973;SDS011;9621;48.690;9.466;2022-08-11T03:49:02;3.53;;;3.10;;
18973;SDS011;9621;48.690;9.466;2022-08-11T03:51:44;4.35;;;3.05;;
18973;SDS011;9621;48.690;9.466;2022-08-11T03:54:21;7.38;;;3.30;;
18973;SDS011;9621;48.690;9.466;2022-08-11T04:03:07;3.85;;;3.40;;
18973;SDS011;9621;48.690;9.466;2022-08-11T04:06:19;3.53;;;3.15;;
18973;SDS011;9621;48.690;9.466;2022-08-11T04:12:17;3.60;;;3.25;;
18973;SDS011;9621;48.690;9.466;2022-08-11T04:27:44;4.18;;;3.28;;
18973;SDS011;9621;48.690;9.466;2022-08-11T04:30:27;4.00;;;3.03;;
18973;SDS011;9621;48.690;9.466;2022-08-11T04:36:19;5.68;;;3.60;;
18973;SDS011;9621;48.690;9.466;2022-08-11T04:39:27;4.38;;;3.63;;
18973;SDS011;9621;48.690;9.466;2022-08-11T04:42:21;6.32;;;3.80;;
18973;SDS011;9621;48.690;9.466;2022-08-11T04:45:53;6.95;;;3.10;;
18973;SDS011;9621;48.690;9.466;2022-08-11T04:48:44;3.13;;;2.83;;
18973;SDS011;9621;48.690;9.466;2022-08-11T04:51:49;3.53;;;2.92;;
18973;SDS011;9621;48.690;9.466;2022-08-11T04:55:14;4.18;;;3.00;;
18973;SDS011;9621;48.690;9.466;2022-08-11T04:58:15;3.53;;;2.92;;
18973;SDS011;9621;48.690;9.466;2022-08-11T05:01:06;4.57;;;3.05;;
18973;SDS011;9621;48.690;9.466;2022-08-11T05:04:06;4.30;;;2.63;;
18973;SDS011;9621;48.690;9.466;2022-08-11T05:07:14;4.97;;;3.20;;
18973;SDS011;9621;48.690;9.466;2022-08-11T05:10:13;3.20;;;2.40;;
18973;SDS011;9621;48.690;9.466;2022-08-11T05:12:50;2.67;;;2.47;;
18973;SDS011;9621;48.690;9.466;2022-08-11T05:15:23;6.75;;;2.70;;
18973;SDS011;9621;48.690;9.466;2022-08-11T05:18:15;3.35;;;2.22;;
18973;SDS011;9621;48.690;9.466;2022-08-11T05:21:04;3.92;;;2.60;;
18973;SDS011;9621;48.690;9.466;2022-08-11T05:23:52;2.95;;;2.65;;
18973;SDS011;9621;48.690;9.466;2022-08-11T05:26:43;2.95;;;2.33;;
18973;SDS011;9621;48.690;9.466;2022-08-11T05:29:38;4.22;;;2.58;;
18973;SDS011;9621;48.690;9.466;2022-08-11T05:32:26;3.38;;;2.60;;
18973;SDS011;9621;48.690;9.466;2022-08-11T05:35:16;3.22;;;2.63;;
18973;SDS011;9621;48.690;9.466;2022-08-11T05:37:51;4.75;;;3.05;;
18973;SDS011;9621;48.690;9.466;2022-08-11T05:40:44;3.22;;;2.42;;
18973;SDS011;9621;48.690;9.466;2022-08-11T05:43:32;4.20;;;2.70;;
18973;SDS011;9621;48.690;9.466;2022-08-11T05:46:22;3.38;;;2.50;;
18973;SDS011;9621;48.690;9.466;2022-08-11T05:49:11;3.42;;;2.25;;
18973;SDS011;9621;48.690;9.466;2022-08-11T05:51:56;3.58;;;2.13;;
18973;SDS011;9621;48.690;9.466;2022-08-11T05:54:43;3.92;;;2.10;;
18973;SDS011;9621;48.690;9.466;2022-08-11T05:57:29;3.95;;;2.42;;
18973;SDS011;9621;48.690;9.466;2022-08-11T05:59:59;5.35;;;2.03;;
18973;SDS011;9621;48.690;9.466;2022-08-11T06:02:38;3.75;;;2.42;;
18973;SDS011;9621;48.690;9.466;2022-08-11T06:05:09;3.15;;;2.00;;
18973;SDS011;9621;48.690;9.466;2022-08-11T06:07:38;4.53;;;2.25;;
18973;SDS011;9621;48.690;9.466;2022-08-11T06:10:05;7.32;;;2.47;;
18973;SDS011;9621;48.690;9.466;2022-08-11T06:12:34;2.47;;;2.28;;
18973;SDS011;9621;48.690;9.466;2022-08-11T06:15:05;3.28;;;2.20;;
18973;SDS011;9621;48.690;9.466;2022-08-11T06:17:34;4.70;;;2.17;;
18973;SDS011;9621;48.690;9.466;2022-08-11T06:20:10;5.97;;;2.55;;
18973;SDS011;9621;48.690;9.466;2022-08-11T06:22:37;4.82;;;2.10;;
18973;SDS011;9621;48.690;9.466;2022-08-11T06:25:07;4.45;;;2.10;;
18973;SDS011;9621;48.690;9.466;2022-08-11T06:27:36;2.63;;;2.08;;
18973;SDS011;9621;48.690;9.466;2022-08-11T06:30:05;2.50;;;2.30;;
18973;SDS011;9621;48.690;9.466;2022-08-11T06:32:38;4.72;;;2.70;;
18973;SDS011;9621;48.690;9.466;2022-08-11T06:35:16;2.42;;;2.17;;
18973;SDS011;9621;48.690;9.466;2022-08-11T06:37:53;6.55;;;2.88;;
18973;SDS011;9621;48.690;9.466;2022-08-11T06:40:34;2.85;;;2.28;;
18973;SDS011;9621;48.690;9.466;2022-08-11T06:43:05;5.25;;;2.28;;
18973;SDS011;9621;48.690;9.466;2022-08-11T06:45:45;5.18;;;2.30;;
18973;SDS011;9621;48.690;9.466;2022-08-11T06:48:17;3.35;;;2.10;;
18973;SDS011;9621;48.690;9.466;2022-08-11T06:50:48;3.58;;;2.40;;
18973;SDS011;9621;48.690;9.466;2022-08-11T06:53:34;3.63;;;2.40;;
18973;SDS011;9621;48.690;9.466;2022-08-11T06:56:06;3.85;;;2.47;;
18973;SDS011;9621;48.690;9.466;2022-08-11T06:58:52;5.60;;;2.50;;
18973;SDS011;9621;48.690;9.466;2022-08-11T07:01:39;5.05;;;2.22;;
18973;SDS011;9621;48.690;9.466;2022-08-11T07:04:12;4.30;;;2.00;;
18973;SDS011;9621;48.690;9.466;2022-08-11T07:06:49;2.67;;;2.10;;
18973;SDS011;9621;48.690;9.466;2022-08-11T07:09:49;4.75;;;2.45;;
18973;SDS011;9621;48.690;9.466;2022-08-11T07:12:49;3.92;;;2.58;;
18973;SDS011;9621;48.690;9.466;2022-08-11T07:15:36;4.90;;;2.35;;
18973;SDS011;9621;48.690;9.466;2022-08-11T07:18:08;4.72;;;2.45;;
18973;SDS011;9621;48.690;9.466;2022-08-11T07:21:04;5.32;;;2.42;;
18973;SDS011;9621;48.690;9.466;2022-08-11T07:23:53;2.55;;;2.10;;
18973;SDS011;9621;48.690;9.466;2022-08-11T07:26:39;5.70;;;2.55;;
18973;SDS011;9621;48.690;9.466;2022-08-11T07:29:31;5.38;;;2.40;;
18973;SDS011;9621;48.690;9.466;2022-08-11T07:31:58;4.43;;;2.20;;
18973;SDS011;9621;48.690;9.466;2022-08-11T07:34:39;5.07;;;2.28;;
18973;SDS011;9621;48.690;9.466;2022-08-11T07:37:09;5.57;;;2.33;;
18973;SDS011;9621;48.690;9.466;2022-08-11T07:39:43;5.85;;;2.15;;
18973;SDS011;9621;48.690;9.466;2022-08-11T07:42:12;4.38;;;2.33;;
18973;SDS011;9621;48.690;9.466;2022-08-11T07:44:41;4.07;;;2.30;;
18973;SDS011;9621;48.690;9.466;2022-08-11T07:47:29;2.42;;;2.10;;
18973;SDS011;9621;48.690;9.466;2022-08-11T07:50:13;3.67;;;2.30;;
18973;SDS011;9621;48.690;9.466;2022-08-11T07:52:59;3.50;;;2.33;;
18973;SDS011;9621;48.690;9.466;2022-08-11T07:55:29;4.57;;;2.28;;
18973;SDS011;9621;48.690;9.466;2022-08-11T07:57:58;6.22;;;2.47;;
18973;SDS011;9621;48.690;9.466;2022-08-11T08:00:44;3.42;;;2.00;;
18973;SDS011;9621;48.690;9.466;2022-08-11T08:03:32;4.22;;;2.03;;
18973;SDS011;9621;48.690;9.466;2022-08-11T08:06:17;3.22;;;2.03;;
18973;SDS011;9621;48.690;9.466;2022-08-11T08:09:03;4.07;;;2.30;;
18973;SDS011;9621;48.690;9.466;2022-08-11T08:11:51;3.17;;;2.05;;
18973;SDS011;9621;48.690;9.466;2022-08-11T08:14:36;3.70;;;2.20;;
18973;SDS011;9621;48.690;9.466;2022-08-11T08:17:21;3.20;;;2.25;;
18973;SDS011;9621;48.690;9.466;2022-08-11T08:20:07;4.20;;;1.95;;
18973;SDS011;9621;48.690;9.466;2022-08-11T08:22:37;2.17;;;1.80;;
18973;SDS011;9621;48.690;9.466;2022-08-11T08:25:06;5.47;;;2.05;;
18973;SDS011;9621;48.690;9.466;2022-08-11T08:27:35;4.38;;;2.30;;
18973;SDS011;9621;48.690;9.466;2022-08-11T08:30:04;5.10;;;2.15;;
18973;SDS011;9621;48.690;9.466;2022-08-11T08:32:50;3.70;;;2.17;;
18973;SDS011;9621;48.690;9.466;2022-08-11T08:35:21;4.22;;;2.00;;
18973;SDS011;9621;48.690;9.466;2022-08-11T08:37:49;2.78;;;1.83;;
18973;SDS011;9621;48.690;9.466;2022-08-11T08:40:16;2.33;;;1.85;;
18973;SDS011;9621;48.690;9.466;2022-08-11T08:42:46;3.72;;;1.85;;
18973;SDS011;9621;48.690;9.466;2022-08-11T08:45:17;3.25;;;1.75;;
18973;SDS011;9621;48.690;9.466;2022-08-11T08:47:45;2.67;;;2.28;;
18973;SDS011;9621;48.690;9.466;2022-08-11T08:50:17;2.88;;;1.98;;
18973;SDS011;9621;48.690;9.466;2022-08-11T08:52:49;8.20;;;1.80;;
18973;SDS011;9621;48.690;9.466;2022-08-11T08:55:19;3.05;;;2.03;;
18973;SDS011;9621;48.690;9.466;2022-08-11T08:57:49;4.88;;;1.90;;
18973;SDS011;9621;48.690;9.466;2022-08-11T09:00:19;2.85;;;1.98;;
18973;SDS011;9621;48.690;9.466;2022-08-11T09:02:47;2.70;;;1.88;;
18973;SDS011;9621;48.690;9.466;2022-08-11T09:05:15;2.00;;;1.60;;
18973;SDS011;9621;48.690;9.466;2022-08-11T09:07:43;2.28;;;1.70;;
18973;SDS011;9621;48.690;9.466;2022-08-11T09:10:12;2.72;;;2.03;;
18973;SDS011;9621;48.690;9.466;2022-08-11T09:12:44;4.05;;;1.70;;
18973;SDS011;9621;48.690;9.466;2022-08-11T09:15:13;5.15;;;1.85;;
18973;SDS011;9621;48.690;9.466;2022-08-11T09:17:43;2.75;;;1.75;;
18973;SDS011;9621;48.690;9.466;2022-08-11T09:20:12;2.55;;;1.70;;
18973;SDS011;9621;48.690;9.466;2022-08-11T09:22:41;4.68;;;1.92;;
18973;SDS011;9621;48.690;9.466;2022-08-11T09:25:29;3.50;;;1.50;;
18973;SDS011;9621;48.690;9.466;2022-08-11T09:28:15;3.08;;;1.70;;
18973;SDS011;9621;48.690;9.466;2022-08-11T09:30:45;4.20;;;1.63;;
18973;SDS011;9621;48.690;9.466;2022-08-11T09:33:17;3.35;;;1.70;;
18973;SDS011;9621;48.690;9.466;2022-08-11T09:35:46;4.43;;;1.70;;
18973;SDS011;9621;48.690;9.466;2022-08-11T09:38:15;5.47;;;1.83;;
18973;SDS011;9621;48.690;9.466;2022-08-11T09:41:00;3.92;;;1.60;;
18973;SDS011;9621;48.690;9.466;2022-08-11T09:43:30;3.22;;;1.50;;
18973;SDS011;9621;48.690;9.466;2022-08-11T09:46:20;4.80;;;1.85;;
18973;SDS011;9621;48.690;9.466;2022-08-11T09:48:51;2.08;;;1.60;;
18973;SDS011;9621;48.690;9.466;2022-08-11T09:51:21;4.32;;;1.85;;
18973;SDS011;9621;48.690;9.466;2022-08-11T09:53:48;3.33;;;1.60;;
18973;SDS011;9621;48.690;9.466;2022-08-11T09:56:17;2.38;;;1.52;;
18973;SDS011;9621;48.690;9.466;2022-08-11T09:59:03;2.25;;;1.70;;
18973;SDS011;9621;48.690;9.466;2022-08-11T10:01:34;3.75;;;1.60;;
18973;SDS011;9621;48.690;9.466;2022-08-11T10:04:07;4.65;;;1.73;;
18973;SDS011;9621;48.690;9.466;2022-08-11T10:06:41;8.32;;;1.80;;
18973;SDS011;9621;48.690;9.466;2022-08-11T10:09:27;1.42;;;1.33;;
18973;SDS011;9621;48.690;9.466;2022-08-11T10:11:59;2.85;;;1.50;;
18973;SDS011;9621;48.690;9.466;2022-08-11T10:14:28;2.90;;;1.52;;
18973;SDS011;9621;48.690;9.466;2022-08-11T10:17:17;5.13;;;1.70;;
18973;SDS011;9621;48.690;9.466;2022-08-11T10:19:47;2.50;;;1.23;;
18973;SDS011;9621;48.690;9.466;2022-08-11T10:22:15;1.55;;;1.30;;
18973;SDS011;9621;48.690;9.466;2022-08-11T10:25:01;3.53;;;1.67;;
18973;SDS011;9621;48.690;9.466;2022-08-11T10:27:46;6.38;;;1.92;;
18973;SDS011;9621;48.690;9.466;2022-08-11T10:30:22;3.00;;;1.80;;
18973;SDS011;9621;48.690;9.466;2022-08-11T10:33:10;2.85;;;1.33;;
18973;SDS011;9621;48.690;9.466;2022-08-11T10:36:07;5.15;;;1.67;;
18973;SDS011;9621;48.690;9.466;2022-08-11T10:38:34;8.98;;;2.10;;
18973;SDS011;9621;48.690;9.466;2022-08-11T10:41:02;8.35;;;1.63;;
18973;SDS011;9621;48.690;9.466;2022-08-11T10:43:48;3.83;;;1.67;;
18973;SDS011;9621;48.690;9.466;2022-08-11T10:46:17;4.18;;;1.30;;
18973;SDS011;9621;48.690;9.466;2022-08-11T10:49:05;2.70;;;1.40;;
18973;SDS011;9621;48.690;9.466;2022-08-11T10:51:33;3.58;;;1.30;;
18973;SDS011;9621;48.690;9.466;2022-08-11T10:54:18;3.45;;;1.33;;
18973;SDS011;9621;48.690;9.466;2022-08-11T10:57:03;2.53;;;1.45;;
18973;SDS011;9621;48.690;9.466;2022-08-11T10:59:52;4.22;;;1.30;;
18973;SDS011;9621;48.690;9.466;2022-08-11T11:02:20;3.40;;;1.40;;
18973;SDS011;9621;48.690;9.466;2022-08-11T11:04:59;1.85;;;1.27;;
18973;SDS011;9621;48.690;9.466;2022-08-11T11:07:37;2.20;;;1.20;;
18973;SDS011;9621;48.690;9.466;2022-08-11T11:10:13;2.88;;;1.50;;
18973;SDS011;9621;48.690;9.466;2022-08-11T11:12:43;1.40;;;1.27;;
18973;SDS011;9621;48.690;9.466;2022-08-11T11:15:29;1.85;;;1.35;;
18973;SDS011;9621;48.690;9.466;2022-08-11T11:18:17;1.63;;;1.33;;
18973;SDS011;9621;48.690;9.466;2022-08-11T11:20:47;2.22;;;1.40;;
18973;SDS011;9621;48.690;9.466;2022-08-11T11:23:22;5.18;;;1.48;;
18973;SDS011;9621;48.690;9.466;2022-08-11T11:25:58;3.17;;;1.40;;
18973;SDS011;9621;48.690;9.466;2022-08-11T11:28:48;1.77;;;1.20;;
18973;SDS011;9621;48.690;9.466;2022-08-11T11:31:45;1.58;;;1.30;;
18973;SDS011;9621;48.690;9.466;2022-08-11T11:34:31;2.13;;;1.20;;
18973;SDS011;9621;48.690;9.466;2022-08-11T11:37:09;2.53;;;1.50;;
18973;SDS011;9621;48.690;9.466;2022-08-11T11:39:38;4.90;;;1.30;;
18973;SDS011;9621;48.690;9.466;2022-08-11T11:42:06;2.13;;;1.35;;
18973;SDS011;9621;48.690;9.466;2022-08-11T11:44:35;3.50;;;1.33;;
18973;SDS011;9621;48.690;9.466;2022-08-11T11:47:04;2.10;;;1.38;;
18973;SDS011;9621;48.690;9.466;2022-08-11T11:49:31;4.10;;;1.67;;
18973;SDS011;9621;48.690;9.466;2022-08-11T11:52:03;3.03;;;1.30;;
18973;SDS011;9621;48.690;9.466;2022-08-11T11:54:35;2.40;;;1.30;;
18973;SDS011;9621;48.690;9.466;2022-08-11T11:57:03;2.30;;;1.30;;
18973;SDS011;9621;48.690;9.466;2022-08-11T11:59:44;3.22;;;1.45;;
18973;SDS011;9621;48.690;9.466;2022-08-11T12:02:29;2.20;;;1.40;;
18973;SDS011;9621;48.690;9.466;2022-08-11T12:04:56;3.88;;;1.10;;
18973;SDS011;9621;48.690;9.466;2022-08-11T12:07:25;1.33;;;1.23;;
18973;SDS011;9621;48.690;9.466;2022-08-11T12:10:08;1.60;;;1.17;;
18973;SDS011;9621;48.690;9.466;2022-08-11T12:12:35;2.42;;;1.25;;
18973;SDS011;9621;48.690;9.466;2022-08-11T12:15:19;4.45;;;1.30;;
18973;SDS011;9621;48.690;9.466;2022-08-11T12:17:46;1.52;;;1.25;;
18973;SDS011;9621;48.690;9.466;2022-08-11T12:20:15;1.48;;;1.35;;
18973;SDS011;9621;48.690;9.466;2022-08-11T12:22:43;1.50;;;1.30;;
18973;SDS011;9621;48.690;9.466;2022-08-11T12:25:37;1.50;;;1.40;;
18973;SDS011;9621;48.690;9.466;2022-08-11T12:28:22;1.70;;;1.17;;
18973;SDS011;9621;48.690;9.466;2022-08-11T12:30:50;1.55;;;1.10;;
18973;SDS011;9621;48.690;9.466;2022-08-11T12:33:18;1.30;;;1.10;;
18973;SDS011;9621;48.690;9.466;2022-08-11T12:35:46;2.65;;;1.50;;
18973;SDS011;9621;48.690;9.466;2022-08-11T12:38:17;5.07;;;1.30;;
18973;SDS011;9621;48.690;9.466;2022-08-11T12:40:48;2.63;;;1.13;;
18973;SDS011;9621;48.690;9.466;2022-08-11T12:43:33;1.67;;;1.40;;
18973;SDS011;9621;48.690;9.466;2022-08-11T12:46:19;2.20;;;1.38;;
18973;SDS011;9621;48.690;9.466;2022-08-11T12:48:49;1.88;;;1.17;;
18973;SDS011;9621;48.690;9.466;2022-08-11T12:51:40;1.55;;;1.20;;
18973;SDS011;9621;48.690;9.466;2022-08-11T12:54:25;2.72;;;1.40;;
18973;SDS011;9621;48.690;9.466;2022-08-11T12:56:57;1.70;;;1.35;;
18973;SDS011;9621;48.690;9.466;2022-08-11T12:59:43;4.50;;;1.70;;
18973;SDS011;9621;48.690;9.466;2022-08-11T13:02:28;1.90;;;1.27;;
18973;SDS011;9621;48.690;9.466;2022-08-11T13:05:14;1.77;;;1.05;;
18973;SDS011;9621;48.690;9.466;2022-08-11T13:07:42;4.30;;;1.50;;
18973;SDS011;9621;48.690;9.466;2022-08-11T13:10:12;1.95;;;1.27;;
18973;SDS011;9621;48.690;9.466;2022-08-11T13:13:02;6.85;;;1.70;;
18973;SDS011;9621;48.690;9.466;2022-08-11T13:15:29;2.65;;;1.58;;
18973;SDS011;9621;48.690;9.466;2022-08-11T13:17:57;1.95;;;1.15;;
18973;SDS011;9621;48.690;9.466;2022-08-11T13:20:26;1.63;;;1.10;;
18973;SDS011;9621;48.690;9.466;2022-08-11T13:22:54;1.58;;;1.23;;
18973;SDS011;9621;48.690;9.466;2022-08-11T13:25:23;2.55;;;1.20;;
18973;SDS011;9621;48.690;9.466;2022-08-11T13:27:54;3.08;;;1.05;;
18973;SDS011;9621;48.690;9.466;2022-08-11T13:30:25;2.17;;;1.17;;
18973;SDS011;9621;48.690;9.466;2022-08-11T13:33:12;3.30;;;1.20;;
18973;SDS011;9621;48.690;9.466;2022-08-11T13:35:40;6.47;;;1.50;;
18973;SDS011;9621;48.690;9.466;2022-08-11T13:38:09;2.67;;;1.10;;
18973;SDS011;9621;48.690;9.466;2022-08-11T13:40:37;1.73;;;1.10;;
18973;SDS011;9621;48.690;9.466;2022-08-11T13:43:05;2.22;;;0.90;;
18973;SDS011;9621;48.690;9.466;2022-08-11T13:45:35;1.40;;;1.25;;
18973;SDS011;9621;48.690;9.466;2022-08-11T13:48:05;3.35;;;1.05;;
18973;SDS011;9621;48.690;9.466;2022-08-11T13:50:34;1.20;;;1.10;;
18973;SDS011;9621;48.690;9.466;2022-08-11T13:53:20;2.88;;;1.35;;
18973;SDS011;9621;48.690;9.466;2022-08-11T13:55:49;2.80;;;1.25;;
18973;SDS011;9621;48.690;9.466;2022-08-11T13:58:16;3.03;;;1.20;;
18973;SDS011;9621;48.690;9.466;2022-08-11T14:00:49;8.70;;;1.33;;
18973;SDS011;9621;48.690;9.466;2022-08-11T14:03:19;2.17;;;1.33;;
18973;SDS011;9621;48.690;9.466;2022-08-11T14:05:49;3.88;;;1.13;;
18973;SDS011;9621;48.690;9.466;2022-08-11T14:08:23;2.55;;;1.30;;
18973;SDS011;9621;48.690;9.466;2022-08-11T14:10:52;2.92;;;1.10;;
18973;SDS011;9621;48.690;9.466;2022-08-11T14:13:39;1.58;;;1.10;;
18973;SDS011;9621;48.690;9.466;2022-08-11T14:16:11;2.78;;;1.30;;
18973;SDS011;9621;48.690;9.466;2022-08-11T14:18:45;5.53;;;1.55;;
18973;SDS011;9621;48.690;9.466;2022-08-11T14:21:15;2.10;;;1.30;;
18973;SDS011;9621;48.690;9.466;2022-08-11T14:24:01;2.28;;;1.45;;
18973;SDS011;9621;48.690;9.466;2022-08-11T14:26:29;2.03;;;1.25;;
18973;SDS011;9621;48.690;9.466;2022-08-11T14:29:04;1.27;;;1.17;;
18973;SDS011;9621;48.690;9.466;2022-08-11T14:31:35;2.33;;;1.30;;
18973;SDS011;9621;48.690;9.466;2022-08-11T14:34:05;2.92;;;1.33;;
18973;SDS011;9621;48.690;9.466;2022-08-11T14:36:35;2.40;;;1.17;;
18973;SDS011;9621;48.690;9.466;2022-08-11T14:39:06;2.30;;;1.40;;
18973;SDS011;9621;48.690;9.466;2022-08-11T14:41:35;2.33;;;1.30;;
18973;SDS011;9621;48.690;9.466;2022-08-11T14:44:21;7.38;;;6.85;;
18973;SDS011;9621;48.690;9.466;2022-08-11T14:47:08;7.53;;;7.10;;
18973;SDS011;9621;48.690;9.466;2022-08-11T14:49:39;8.07;;;7.68;;
18973;SDS011;9621;48.690;9.466;2022-08-11T14:52:07;7.82;;;7.32;;
18973;SDS011;9621;48.690;9.466;2022-08-11T14:54:41;7.50;;;6.90;;
18973;SDS011;9621;48.690;9.466;2022-08-11T14:57:26;8.15;;;7.55;;
18973;SDS011;9621;48.690;9.466;2022-08-11T14:59:56;8.20;;;7.50;;
18973;SDS011;9621;48.690;9.466;2022-08-11T15:02:26;7.97;;;7.50;;
18973;SDS011;9621;48.690;9.466;2022-08-11T15:05:12;7.88;;;7.38;;
18973;SDS011;9621;48.690;9.466;2022-08-11T15:07:40;8.18;;;7.47;;
18973;SDS011;9621;48.690;9.466;2022-08-11T15:10:08;9.57;;;7.70;;
18973;SDS011;9621;48.690;9.466;2022-08-11T15:12:36;8.73;;;8.18;;
18973;SDS011;9621;48.690;9.466;2022-08-11T15:15:07;8.65;;;8.15;;
18973;SDS011;9621;48.690;9.466;2022-08-11T15:17:51;9.27;;;8.63;;
18973;SDS011;9621;48.690;9.466;2022-08-11T15:20:20;10.23;;;8.20;;
18973;SDS011;9621;48.690;9.466;2022-08-11T15:23:06;9.25;;;8.55;;
18973;SDS011;9621;48.690;9.466;2022-08-11T15:25:52;8.73;;;8.23;;
18973;SDS011;9621;48.690;9.466;2022-08-11T15:28:22;9.88;;;9.07;;
18973;SDS011;9621;48.690;9.466;2022-08-11T15:31:21;9.20;;;8.70;;
18973;SDS011;9621;48.690;9.466;2022-08-11T15:34:10;9.57;;;8.88;;
18973;SDS011;9621;48.690;9.466;2022-08-11T15:36:57;9.48;;;8.90;;
18973;SDS011;9621;48.690;9.466;2022-08-11T15:39:46;9.10;;;8.55;;
18973;SDS011;9621;48.690;9.466;2022-08-11T15:42:32;9.30;;;8.80;;
18973;SDS011;9621;48.690;9.466;2022-08-11T15:45:22;9.52;;;8.80;;
18973;SDS011;9621;48.690;9.466;2022-08-11T15:48:09;9.50;;;8.88;;
18973;SDS011;9621;48.690;9.466;2022-08-11T15:50:41;9.65;;;9.05;;
18973;SDS011;9621;48.690;9.466;2022-08-11T15:53:17;10.05;;;9.38;;
18973;SDS011;9621;48.690;9.466;2022-08-11T15:55:52;9.20;;;8.60;;
18973;SDS011;9621;48.690;9.466;2022-08-11T15:58:20;9.45;;;8.80;;
18973;SDS011;9621;48.690;9.466;2022-08-11T16:01:08;9.55;;;8.90;;
18973;SDS011;9621;48.690;9.466;2022-08-11T16:03:54;9.57;;;8.98;;
18973;SDS011;9621;48.690;9.466;2022-08-11T16:06:41;9.25;;;8.70;;
18973;SDS011;9621;48.690;9.466;2022-08-11T16:09:13;9.43;;;8.93;;
18973;SDS011;9621;48.690;9.466;2022-08-11T16:11:42;9.50;;;8.80;;
18973;SDS011;9621;48.690;9.466;2022-08-11T16:14:11;10.07;;;9.30;;
18973;SDS011;9621;48.690;9.466;2022-08-11T16:16:58;9.68;;;8.95;;
18973;SDS011;9621;48.690;9.466;2022-08-11T16:19:27;9.40;;;8.57;;
18973;SDS011;9621;48.690;9.466;2022-08-11T16:22:01;9.77;;;9.20;;
18973;SDS011;9621;48.690;9.466;2022-08-11T16:24:31;9.50;;;8.90;;
18973;SDS011;9621;48.690;9.466;2022-08-11T16:27:01;9.60;;;9.00;;
18973;SDS011;9621;48.690;9.466;2022-08-11T16:29:30;8.98;;;8.30;;
18973;SDS011;9621;48.690;9.466;2022-08-11T16:32:01;9.80;;;9.02;;
18973;SDS011;9621;48.690;9.466;2022-08-11T16:34:44;9.38;;;8.70;;
18973;SDS011;9621;48.690;9.466;2022-08-11T16:37:34;9.77;;;9.20;;
18973;SDS011;9621;48.690;9.466;2022-08-11T16:40:20;9.38;;;8.88;;
18973;SDS011;9621;48.690;9.466;2022-08-11T16:42:48;9.25;;;8.65;;
18973;SDS011;9621;48.690;9.466;2022-08-11T16:45:33;9.55;;;8.82;;
18973;SDS011;9621;48.690;9.466;2022-08-11T16:48:20;9.52;;;8.63;;
18973;SDS011;9621;48.690;9.466;2022-08-11T16:50:52;8.90;;;8.30;;
18973;SDS011;9621;48.690;9.466;2022-08-11T16:53:21;8.90;;;8.40;;
18973;SDS011;9621;48.690;9.466;2022-08-11T16:55:48;9.70;;;8.95;;
18973;SDS011;9621;48.690;9.466;2022-08-11T16:58:19;8.23;;;7.72;;
18973;SDS011;9621;48.690;9.466;2022-08-11T17:01:06;9.80;;;8.48;;